createdAt,value
2019-03-20T00:01:48.604Z,16.30
2019-03-20T00:04:20.140Z,14.30
2019-03-20T00:06:51.594Z,18.63
2019-03-20T00:09:23.135Z,23.60
2019-03-20T00:11:54.623Z,23.90
2019-03-20T00:14:26.281Z,20.13
2019-03-20T00:16:57.784Z,19.90
2019-03-20T00:19:29.310Z,16.53
2019-03-20T00:22:00.805Z,11.30
2019-03-20T00:24:32.349Z,19.77
2019-03-20T00:27:03.854Z,15.77
2019-03-20T00:29:35.501Z,21.57
2019-03-20T00:32:07.143Z,10.90
2019-03-20T00:34:39.679Z,22.33
2019-03-20T00:37:11.224Z,27.73
2019-03-20T00:39:42.782Z,13.47
2019-03-20T00:42:14.253Z,18.27
2019-03-20T00:44:45.809Z,16.27
2019-03-20T00:47:19.262Z,15.17
2019-03-20T00:49:50.706Z,22.97
2019-03-20T00:52:22.147Z,22.63
2019-03-20T00:54:53.899Z,21.90
2019-03-20T00:57:25.400Z,12.27
2019-03-20T00:59:57.038Z,23.20
2019-03-20T01:02:28.589Z,11.67
2019-03-20T01:05:00.016Z,17.33
2019-03-20T01:07:31.488Z,15.40
2019-03-20T01:10:03.004Z,13.87
2019-03-20T01:12:34.542Z,9.53
2019-03-20T01:15:06.696Z,13.10
2019-03-20T01:17:38.062Z,15.70
2019-03-20T01:20:13.711Z,12.53
2019-03-20T01:22:45.324Z,19.80
2019-03-20T01:25:17.454Z,8.10
2019-03-20T01:27:48.873Z,12.70
2019-03-20T01:30:34.838Z,13.93
2019-03-20T01:33:11.796Z,9.80
2019-03-20T01:35:44.437Z,15.30
2019-03-20T01:38:15.850Z,8.50
2019-03-20T01:40:47.300Z,14.87
2019-03-20T01:43:18.751Z,19.70
2019-03-20T01:45:50.212Z,15.73
2019-03-20T01:48:21.633Z,10.73
2019-03-20T01:50:53.120Z,10.73
2019-03-20T01:53:24.538Z,15.93
2019-03-20T01:55:56.058Z,15.10
2019-03-20T01:58:27.484Z,19.37
2019-03-20T02:00:58.976Z,14.83
2019-03-20T02:03:30.388Z,9.07
2019-03-20T02:06:01.862Z,15.67
2019-03-20T02:08:34.550Z,11.63
2019-03-20T02:11:05.988Z,9.73
2019-03-20T02:13:37.424Z,13.40
2019-03-20T02:16:08.881Z,14.80
2019-03-20T02:18:40.392Z,9.30
2019-03-20T02:21:11.969Z,12.60
2019-03-20T02:23:43.450Z,13.63
2019-03-20T02:26:15.051Z,11.60
2019-03-20T02:28:46.501Z,12.90
2019-03-20T02:31:18.155Z,8.53
2019-03-20T02:33:49.659Z,16.33
2019-03-20T02:36:21.099Z,17.07
2019-03-20T02:38:52.515Z,21.97
2019-03-20T02:41:23.964Z,12.87
2019-03-20T02:43:55.400Z,37.17
2019-03-20T02:46:26.847Z,10.73
2019-03-20T02:48:58.450Z,19.80
2019-03-20T02:51:29.903Z,11.40
2019-03-20T02:54:01.309Z,16.33
2019-03-20T02:56:32.787Z,7.47
2019-03-20T02:59:04.227Z,11.47
2019-03-20T03:01:35.662Z,11.03
2019-03-20T03:04:07.083Z,11.53
2019-03-20T03:06:38.644Z,12.07
2019-03-20T03:09:10.764Z,13.13
2019-03-20T03:11:42.176Z,14.87
2019-03-20T03:14:13.717Z,9.90
2019-03-20T03:16:45.250Z,6.90
2019-03-20T03:19:16.752Z,9.23
2019-03-20T03:21:48.225Z,13.07
2019-03-20T03:24:19.744Z,16.17
2019-03-20T03:26:51.401Z,10.57
2019-03-20T03:29:22.857Z,12.20
2019-03-20T03:31:54.313Z,10.93
2019-03-20T03:34:25.762Z,16.23
2019-03-20T03:36:57.378Z,8.93
2019-03-20T03:39:28.794Z,19.97
2019-03-20T03:42:00.271Z,12.93
2019-03-20T03:44:31.744Z,12.27
2019-03-20T03:47:03.228Z,14.73
2019-03-20T03:49:34.643Z,14.30
2019-03-20T03:52:25.139Z,12.77
2019-03-20T03:54:56.692Z,7.87
2019-03-20T03:57:28.346Z,10.60
2019-03-20T03:59:59.792Z,14.53
2019-03-20T04:02:32.006Z,10.03
2019-03-20T04:05:03.463Z,14.87
2019-03-20T04:07:34.901Z,17.13
2019-03-20T04:10:08.732Z,11.47
2019-03-20T04:12:40.223Z,9.50
2019-03-20T04:15:13.159Z,8.87
2019-03-20T04:17:44.641Z,16.57
2019-03-20T04:20:16.135Z,9.70
2019-03-20T04:22:48.804Z,23.13
2019-03-20T04:25:20.230Z,20.63
2019-03-20T04:27:51.722Z,18.13
2019-03-20T04:30:24.198Z,14.97
2019-03-20T04:32:55.623Z,17.17
2019-03-20T04:35:27.055Z,21.20
2019-03-20T04:37:58.504Z,12.00
2019-03-20T04:40:29.930Z,11.80
2019-03-20T04:43:01.473Z,14.40
2019-03-20T04:45:32.903Z,18.63
2019-03-20T04:48:04.421Z,11.37
2019-03-20T04:50:35.854Z,11.93
2019-03-20T04:53:07.423Z,12.60
2019-03-20T04:55:39.065Z,12.80
2019-03-20T04:58:10.575Z,19.07
2019-03-20T05:00:42.137Z,17.67
2019-03-20T05:03:13.665Z,18.90
2019-03-20T05:05:46.265Z,20.03
2019-03-20T05:08:17.967Z,17.33
2019-03-20T05:10:50.465Z,14.13
2019-03-20T05:13:21.914Z,15.60
2019-03-20T05:15:53.364Z,9.60
2019-03-20T05:18:24.855Z,16.57
2019-03-20T05:20:57.082Z,23.53
2019-03-20T05:23:28.509Z,18.67
2019-03-20T05:26:00.073Z,14.23
2019-03-20T05:28:31.730Z,32.77
2019-03-20T05:31:03.173Z,17.57
2019-03-20T05:33:34.622Z,16.03
2019-03-20T05:36:06.142Z,21.60
2019-03-20T05:38:37.636Z,34.00
2019-03-20T05:41:09.101Z,24.50
2019-03-20T05:43:40.631Z,16.73
2019-03-20T05:46:12.051Z,20.97
2019-03-20T05:48:43.563Z,18.80
2019-03-20T05:51:15.021Z,20.10
2019-03-20T05:53:46.534Z,21.30
2019-03-20T05:56:18.050Z,19.63
2019-03-20T05:58:49.585Z,25.33
2019-03-20T06:01:21.010Z,24.53
2019-03-20T06:03:52.563Z,22.87
2019-03-20T06:06:23.994Z,21.90
2019-03-20T06:08:55.668Z,29.20
2019-03-20T06:11:27.103Z,25.20
2019-03-20T06:13:58.695Z,24.43
2019-03-20T06:16:30.132Z,24.63
2019-03-20T06:19:01.745Z,21.60
2019-03-20T06:21:34.409Z,20.47
2019-03-20T06:24:05.988Z,28.07
2019-03-20T06:26:37.410Z,28.80
2019-03-20T06:29:08.959Z,31.57
2019-03-20T06:31:40.392Z,26.67
2019-03-20T06:34:11.852Z,32.83
2019-03-20T06:36:43.271Z,26.63
2019-03-20T06:39:14.872Z,28.53
2019-03-20T06:41:46.333Z,30.47
2019-03-20T06:44:19.008Z,31.13
2019-03-20T06:46:50.454Z,24.97
2019-03-20T06:49:22.088Z,28.70
2019-03-20T06:51:53.563Z,31.37
2019-03-20T06:54:25.060Z,35.40
2019-03-20T06:56:56.478Z,34.43
2019-03-20T07:00:26.092Z,33.40
2019-03-20T07:02:58.239Z,32.23
2019-03-20T07:06:14.376Z,40.00
2019-03-20T07:08:52.130Z,40.73
2019-03-20T07:11:21.195Z,37.40
2019-03-20T07:13:52.652Z,31.57
2019-03-20T07:16:24.130Z,32.87
2019-03-20T07:18:55.915Z,41.20
2019-03-20T07:21:27.390Z,35.40
2019-03-20T07:23:58.835Z,43.07
2019-03-20T07:26:30.262Z,42.33
2019-03-20T07:29:03.697Z,36.77
2019-03-20T07:31:35.102Z,42.90
2019-03-20T07:34:06.584Z,47.43
2019-03-20T07:36:38.202Z,43.63
2019-03-20T07:39:10.850Z,43.07
2019-03-20T07:41:42.280Z,41.77
2019-03-20T07:44:13.695Z,39.30
2019-03-20T07:46:45.133Z,48.00
2019-03-20T07:49:16.781Z,45.97
2019-03-20T07:51:48.903Z,40.83
2019-03-20T07:54:20.369Z,39.90
2019-03-20T07:56:51.918Z,44.67
2019-03-20T07:59:23.485Z,39.00
2019-03-20T08:01:54.936Z,42.77
2019-03-20T08:04:26.476Z,41.97
2019-03-20T08:06:58.100Z,38.17
2019-03-20T08:09:29.692Z,38.27
2019-03-20T08:12:01.263Z,45.80
2019-03-20T08:14:32.829Z,38.77
2019-03-20T08:17:04.475Z,36.83
2019-03-20T08:19:38.368Z,49.67
2019-03-20T08:22:09.926Z,40.37
2019-03-20T08:24:41.678Z,45.30
2019-03-20T08:27:13.302Z,39.27
2019-03-20T08:29:45.991Z,39.73
2019-03-20T08:32:17.571Z,41.50
2019-03-20T08:34:55.824Z,42.40
2019-03-20T08:37:27.341Z,37.93
2019-03-20T08:39:58.958Z,47.03
2019-03-20T08:42:30.613Z,43.10
2019-03-20T08:45:02.158Z,37.93
2019-03-20T08:47:33.880Z,43.80
2019-03-20T08:50:06.641Z,33.23
2019-03-20T08:52:39.442Z,33.63
2019-03-20T08:55:11.170Z,32.30
2019-03-20T08:57:42.824Z,35.90
2019-03-20T09:00:17.443Z,39.10
2019-03-20T09:02:50.832Z,40.37
2019-03-20T09:05:25.550Z,33.53
2019-03-20T09:07:57.110Z,36.50
2019-03-20T09:10:28.540Z,35.40
2019-03-20T09:12:59.970Z,42.87
2019-03-20T09:15:31.602Z,35.57
2019-03-20T09:18:08.919Z,38.90
2019-03-20T09:20:40.578Z,32.67
2019-03-20T09:23:12.172Z,33.13
2019-03-20T09:25:44.786Z,36.90
2019-03-20T09:28:17.283Z,35.37
2019-03-20T09:30:48.842Z,33.10
2019-03-20T09:33:21.981Z,37.60
2019-03-20T09:35:53.512Z,45.30
2019-03-20T09:38:25.175Z,32.90
2019-03-20T09:40:56.803Z,40.70
2019-03-20T09:43:28.379Z,35.13
2019-03-20T09:45:59.923Z,26.80
2019-03-20T09:48:31.663Z,34.00
2019-03-20T09:51:03.160Z,33.77
2019-03-20T09:53:35.870Z,32.10
2019-03-20T09:56:07.710Z,33.03
2019-03-20T09:58:39.168Z,27.97
2019-03-20T10:01:10.657Z,29.27
2019-03-20T10:03:42.218Z,28.93
2019-03-20T10:06:13.710Z,30.60
2019-03-20T10:08:53.767Z,33.80
2019-03-20T10:11:18.499Z,45.80
2019-03-20T10:13:50.148Z,31.93
2019-03-20T10:16:21.746Z,28.17
2019-03-20T10:18:53.336Z,34.00
2019-03-20T10:21:24.882Z,37.03
2019-03-20T10:23:56.609Z,27.77
2019-03-20T10:26:29.405Z,28.50
2019-03-20T10:29:01.010Z,29.77
2019-03-20T10:31:32.574Z,38.83
2019-03-20T10:34:04.066Z,29.03
2019-03-20T10:36:35.723Z,33.33
2019-03-20T10:39:10.188Z,31.33
2019-03-20T10:41:41.786Z,35.67
2019-03-20T10:44:13.353Z,26.90
2019-03-20T10:46:44.879Z,31.03
2019-03-20T10:49:16.457Z,42.43
2019-03-20T10:51:48.072Z,32.07
2019-03-20T10:54:20.715Z,43.83
2019-03-20T10:56:52.246Z,31.77
2019-03-20T10:59:23.936Z,30.40
2019-03-20T11:01:55.647Z,35.17
2019-03-20T11:04:27.220Z,33.37
2019-03-20T11:06:58.955Z,38.90
2019-03-20T11:09:30.864Z,34.27
2019-03-20T11:12:02.601Z,34.23
2019-03-20T11:14:34.293Z,37.70
2019-03-20T11:17:10.119Z,38.00
2019-03-20T11:19:42.011Z,37.43
2019-03-20T11:22:18.573Z,41.20
2019-03-20T11:24:47.005Z,35.33
2019-03-20T11:27:18.533Z,34.43
2019-03-20T11:29:50.184Z,37.20
2019-03-20T11:32:21.788Z,47.03
2019-03-20T11:34:53.323Z,38.30
2019-03-20T11:37:24.905Z,35.83
2019-03-20T11:39:56.553Z,37.33
2019-03-20T11:42:28.115Z,37.13
2019-03-20T11:44:59.712Z,41.37
2019-03-20T11:47:31.311Z,39.43
2019-03-20T11:50:03.243Z,36.73
2019-03-20T11:52:34.724Z,37.60
2019-03-20T11:55:07.005Z,37.83
2019-03-20T11:57:38.578Z,38.63
2019-03-20T12:00:14.841Z,36.43
2019-03-20T12:02:46.576Z,37.53
2019-03-20T12:05:18.082Z,50.10
2019-03-20T12:07:50.758Z,38.73
2019-03-20T12:10:23.516Z,40.10
2019-03-20T12:12:56.071Z,34.33
2019-03-20T12:15:28.139Z,41.50
2019-03-20T12:17:59.780Z,42.17
2019-03-20T12:20:31.633Z,32.60
2019-03-20T12:23:03.192Z,38.63
2019-03-20T12:25:34.869Z,34.63
2019-03-20T12:28:06.452Z,43.63
2019-03-20T12:30:41.318Z,37.43
2019-03-20T12:33:13.879Z,45.40
2019-03-20T12:35:45.390Z,48.93
2019-03-20T12:38:16.825Z,37.53
2019-03-20T12:40:48.288Z,42.20
2019-03-20T12:43:19.947Z,48.30
2019-03-20T12:45:51.432Z,42.00
2019-03-20T12:48:22.947Z,41.30
2019-03-20T12:50:54.419Z,44.87
2019-03-20T12:53:29.885Z,51.00
2019-03-20T12:56:01.481Z,42.73
2019-03-20T12:58:33.044Z,39.27
2019-03-20T13:01:05.119Z,48.47
2019-03-20T13:03:38.832Z,39.30
2019-03-20T13:06:10.320Z,43.47
2019-03-20T13:08:41.789Z,50.37
2019-03-20T13:11:13.260Z,39.57
2019-03-20T13:13:44.686Z,42.57
2019-03-20T13:16:16.657Z,44.63
2019-03-20T13:18:48.340Z,35.87
2019-03-20T13:21:19.800Z,40.07
2019-03-20T13:23:51.215Z,42.23
2019-03-20T13:26:22.804Z,44.70
2019-03-20T13:28:54.345Z,42.07
2019-03-20T13:31:25.963Z,40.77
2019-03-20T13:33:57.466Z,51.07
2019-03-20T13:36:29.114Z,43.37
2019-03-20T13:39:00.584Z,40.03
2019-03-20T13:41:33.662Z,43.13
2019-03-20T13:44:05.316Z,50.63
2019-03-20T13:46:36.842Z,42.47
2019-03-20T13:49:08.337Z,43.20
2019-03-20T13:51:39.917Z,44.03
2019-03-20T13:54:11.378Z,40.93
2019-03-20T13:56:42.822Z,47.90
2019-03-20T13:59:14.398Z,44.47
2019-03-20T14:01:45.880Z,54.27
2019-03-20T14:04:17.324Z,43.90
2019-03-20T14:06:48.788Z,46.57
2019-03-20T14:09:20.270Z,45.23
2019-03-20T14:11:51.729Z,51.93
2019-03-20T14:14:23.253Z,45.37
2019-03-20T14:16:55.952Z,44.63
2019-03-20T14:19:27.466Z,51.43
2019-03-20T14:21:59.098Z,48.37
2019-03-20T14:24:30.644Z,50.43
2019-03-20T14:27:02.890Z,48.23
2019-03-20T14:29:34.658Z,47.57
2019-03-20T14:32:06.337Z,45.07
2019-03-20T14:34:37.888Z,50.03
2019-03-20T14:37:09.561Z,44.77
2019-03-20T14:39:40.972Z,45.63
2019-03-20T14:42:12.509Z,47.53
2019-03-20T14:44:44.082Z,51.80
2019-03-20T14:47:21.714Z,57.60
2019-03-20T14:49:53.126Z,59.83
2019-03-20T14:52:24.664Z,48.77
2019-03-20T14:54:56.130Z,56.87
2019-03-20T14:57:27.660Z,56.50
2019-03-20T14:59:59.182Z,56.87
2019-03-20T15:02:30.785Z,54.97
2019-03-20T15:05:02.451Z,46.07
2019-03-20T15:07:35.248Z,53.20
2019-03-20T15:10:08.385Z,55.57
2019-03-20T15:12:40.188Z,46.67
2019-03-20T15:15:21.244Z,56.70
2019-03-20T15:17:52.796Z,49.40
2019-03-20T15:20:24.378Z,58.03
2019-03-20T15:22:56.243Z,58.00
2019-03-20T15:25:28.033Z,53.57
2019-03-20T15:27:59.826Z,55.60
2019-03-20T15:30:31.332Z,45.00
2019-03-20T15:33:02.845Z,52.13
2019-03-20T15:35:35.046Z,46.87
2019-03-20T15:38:06.828Z,54.00
2019-03-20T15:40:38.289Z,49.43
2019-03-20T15:43:09.849Z,50.07
2019-03-20T15:45:41.393Z,49.37
2019-03-20T15:48:12.992Z,53.50
2019-03-20T15:50:44.680Z,52.03
2019-03-20T15:53:16.201Z,57.50
2019-03-20T15:55:47.812Z,51.97
2019-03-20T15:58:19.370Z,56.83
2019-03-20T16:00:50.978Z,52.50
2019-03-20T16:03:23.511Z,48.07
2019-03-20T16:05:55.264Z,56.83
2019-03-20T16:08:26.842Z,56.30
2019-03-20T16:11:06.257Z,49.47
2019-03-20T16:13:31.789Z,53.63
2019-03-20T16:16:03.201Z,49.37
2019-03-20T16:18:35.045Z,48.60
2019-03-20T16:21:10.397Z,54.87
2019-03-20T16:23:42.125Z,55.03
2019-03-20T16:26:13.653Z,49.87
2019-03-20T16:28:45.082Z,53.13
2019-03-20T16:31:16.723Z,58.50
2019-03-20T16:33:48.247Z,56.63
2019-03-20T16:36:19.841Z,50.27
2019-03-20T16:38:51.456Z,53.07
2019-03-20T16:41:23.095Z,52.87
2019-03-20T16:43:54.619Z,53.47
2019-03-20T16:46:26.093Z,54.13
2019-03-20T16:48:59.142Z,50.43
2019-03-20T16:51:30.831Z,57.30
2019-03-20T16:54:04.499Z,59.27
2019-03-20T16:56:36.143Z,57.37
2019-03-20T16:59:07.697Z,53.87
2019-03-20T17:01:39.253Z,64.70
2019-03-20T17:04:10.986Z,57.80
2019-03-20T17:06:42.645Z,58.30
2019-03-20T17:09:14.331Z,63.77
2019-03-20T17:11:45.864Z,56.27
2019-03-20T17:14:17.900Z,58.10
2019-03-20T17:16:49.549Z,68.50
2019-03-20T17:19:21.287Z,69.17
2019-03-20T17:21:52.818Z,67.10
2019-03-20T17:24:24.652Z,65.43
2019-03-20T17:27:19.658Z,61.30
2019-03-20T17:29:51.245Z,61.90
2019-03-20T17:32:22.847Z,75.40
2019-03-20T17:34:54.447Z,64.83
2019-03-20T17:37:25.982Z,72.17
2019-03-20T17:39:57.667Z,71.13
2019-03-20T17:42:29.235Z,68.53
2019-03-20T17:45:00.777Z,68.00
2019-03-20T17:47:32.377Z,73.83
2019-03-20T17:50:04.661Z,73.20
2019-03-20T17:52:36.381Z,67.27
2019-03-20T17:55:08.165Z,62.07
2019-03-20T17:57:40.890Z,66.20
2019-03-20T18:00:21.035Z,63.07
2019-03-20T18:02:52.764Z,70.77
2019-03-20T18:05:24.217Z,72.30
2019-03-20T18:07:55.705Z,57.70
2019-03-20T18:10:27.301Z,67.67
2019-03-20T18:12:59.776Z,67.23
2019-03-20T18:15:31.427Z,59.50
2019-03-20T18:18:03.077Z,58.97
2019-03-20T18:20:34.568Z,62.23
2019-03-20T18:23:07.686Z,64.53
2019-03-20T18:25:39.294Z,70.20
2019-03-20T18:28:10.856Z,65.03
2019-03-20T18:30:42.364Z,62.53
2019-03-20T18:33:13.798Z,58.20
2019-03-20T18:35:45.419Z,60.37
2019-03-20T18:38:16.972Z,60.80
2019-03-20T18:40:48.593Z,66.87
2019-03-20T18:43:20.258Z,70.40
2019-03-20T18:45:52.462Z,62.00
2019-03-20T18:48:24.133Z,63.43
2019-03-20T18:50:55.658Z,62.77
2019-03-20T18:53:27.118Z,77.60
2019-03-20T18:55:58.682Z,67.67
2019-03-20T18:58:30.354Z,64.43
2019-03-20T19:01:01.861Z,62.47
2019-03-20T19:03:33.946Z,65.63
2019-03-20T19:06:14.575Z,67.33
2019-03-20T19:08:46.357Z,77.40
2019-03-20T19:11:18.135Z,64.77
2019-03-20T19:13:49.874Z,68.13
2019-03-20T19:16:21.593Z,64.57
2019-03-20T19:18:55.053Z,69.17
2019-03-20T19:21:26.752Z,67.30
2019-03-20T19:23:58.520Z,65.27
2019-03-20T19:26:31.098Z,72.10
2019-03-20T19:29:03.711Z,70.73
2019-03-20T19:31:35.891Z,66.17
2019-03-20T19:34:07.393Z,67.17
2019-03-20T19:36:38.875Z,64.20
2019-03-20T19:39:10.843Z,76.90
2019-03-20T19:41:42.356Z,61.20
2019-03-20T19:44:13.816Z,71.70
2019-03-20T19:46:45.447Z,71.07
2019-03-20T19:49:17.054Z,71.07
2019-03-20T19:51:48.550Z,64.87
2019-03-20T19:54:20.100Z,68.70
2019-03-20T19:56:51.575Z,63.63
2019-03-20T19:59:23.183Z,67.70
2019-03-20T20:01:54.701Z,70.17
2019-03-20T20:04:26.195Z,67.40
2019-03-20T20:06:57.694Z,70.70
2019-03-20T20:09:29.170Z,69.80
2019-03-20T20:12:00.667Z,65.40
2019-03-20T20:14:32.205Z,69.90
2019-03-20T20:17:03.681Z,66.87
2019-03-20T20:19:35.302Z,65.97
2019-03-20T20:22:06.788Z,67.43
2019-03-20T20:24:38.227Z,66.73
2019-03-20T20:27:09.790Z,68.47
2019-03-20T20:29:41.364Z,72.13
2019-03-20T20:32:13.084Z,85.07
2019-03-20T20:34:44.525Z,74.40
2019-03-20T20:37:16.016Z,68.53
2019-03-20T20:39:47.520Z,68.07
2019-03-20T20:42:19.225Z,75.47
2019-03-20T20:44:50.699Z,68.90
2019-03-20T20:47:22.477Z,79.07
2019-03-20T20:49:54.277Z,68.40
2019-03-20T20:52:27.269Z,68.47
2019-03-20T20:54:58.918Z,68.77
2019-03-20T20:57:30.330Z,72.43
2019-03-20T21:00:02.076Z,69.30
2019-03-20T21:02:34.673Z,71.27
2019-03-20T21:05:06.568Z,73.07
2019-03-20T21:07:38.053Z,69.00
2019-03-20T21:10:11.082Z,74.77
2019-03-20T21:12:42.988Z,69.63
2019-03-20T21:15:39.158Z,64.33
2019-03-20T21:19:23.180Z,68.30
2019-03-20T21:22:59.790Z,71.23
2019-03-20T21:25:32.150Z,75.13
2019-03-20T21:28:59.596Z,72.97
2019-03-20T21:32:00.029Z,74.67
2019-03-20T21:35:35.529Z,75.03
2019-03-20T21:38:10.639Z,60.90
2019-03-20T21:41:51.049Z,62.37
2019-03-20T21:45:23.805Z,67.30
2019-03-20T21:47:56.151Z,66.13
2019-03-20T21:51:12.071Z,62.07
2019-03-20T21:54:33.949Z,59.23
2019-03-20T21:57:56.466Z,65.80
2019-03-20T22:01:41.995Z,68.73
2019-03-20T22:04:14.385Z,58.17
2019-03-20T22:07:23.941Z,59.70
2019-03-20T22:10:54.351Z,68.03
2019-03-20T22:13:59.439Z,67.20
2019-03-20T22:17:49.912Z,71.33
2019-03-20T22:20:55.053Z,67.10
2019-03-20T22:24:19.036Z,62.37
2019-03-20T22:28:03.699Z,67.77
2019-03-20T22:30:35.964Z,66.07
2019-03-20T22:34:01.260Z,72.53
2019-03-20T22:36:39.265Z,66.80
2019-03-20T22:40:35.591Z,63.43
2019-03-20T22:43:30.448Z,74.50
2019-03-20T22:47:10.728Z,75.70
2019-03-20T22:50:36.255Z,58.33
2019-03-20T22:53:52.371Z,78.63
2019-03-20T22:57:02.622Z,76.17
2019-03-20T22:59:34.872Z,69.97
2019-03-20T23:02:43.666Z,64.97
2019-03-20T23:05:15.998Z,76.00
2019-03-20T23:07:48.267Z,77.07
2019-03-20T23:10:20.577Z,67.37
2019-03-20T23:12:52.858Z,81.40
2019-03-20T23:15:25.161Z,75.20
2019-03-20T23:17:57.523Z,84.30
2019-03-20T23:20:30.315Z,85.10
2019-03-20T23:23:02.743Z,82.80
2019-03-20T23:25:35.016Z,86.70
2019-03-20T23:28:07.361Z,79.43
2019-03-20T23:30:39.786Z,75.00
2019-03-20T23:33:12.073Z,73.27
2019-03-20T23:35:44.412Z,87.13
2019-03-20T23:38:16.746Z,92.27
2019-03-20T23:40:49.035Z,94.73
2019-03-20T23:43:21.530Z,89.77
2019-03-20T23:45:53.820Z,84.83
2019-03-20T23:48:54.401Z,88.30
2019-03-20T23:51:27.753Z,89.77
2019-03-20T23:54:00.424Z,95.13
2019-03-20T23:56:34.810Z,107.47
2019-03-20T23:59:07.876Z,103.50
